createdAt,value
2018-07-11T00:01:09.829Z,13.73
2018-07-11T00:03:43.956Z,13.68
2018-07-11T00:06:12.607Z,13.61
2018-07-11T00:08:40.612Z,13.65
2018-07-11T00:11:09.160Z,13.56
2018-07-11T00:13:37.141Z,13.49
2018-07-11T00:16:05.333Z,13.46
2018-07-11T00:18:33.466Z,13.44
2018-07-11T00:21:02.102Z,13.38
2018-07-11T00:23:30.767Z,13.29
2018-07-11T00:25:58.657Z,13.29
2018-07-11T00:28:26.630Z,13.28
2018-07-11T00:30:54.832Z,13.30
2018-07-11T00:33:22.875Z,13.26
2018-07-11T00:35:50.821Z,13.32
2018-07-11T00:38:18.917Z,13.18
2018-07-11T00:40:46.873Z,13.24
2018-07-11T00:43:14.845Z,13.19
2018-07-11T00:45:43.049Z,12.92
2018-07-11T00:48:10.972Z,12.87
2018-07-11T00:50:39.005Z,12.82
2018-07-11T00:53:07.171Z,12.93
2018-07-11T00:55:36.061Z,12.91
2018-07-11T00:58:20.318Z,12.75
2018-07-11T01:01:06.502Z,12.71
2018-07-11T01:03:41.666Z,12.66
2018-07-11T01:06:10.285Z,12.62
2018-07-11T01:08:40.533Z,12.69
2018-07-11T01:11:13.750Z,12.68
2018-07-11T01:13:43.155Z,12.68
2018-07-11T01:16:12.266Z,12.63
2018-07-11T01:18:55.132Z,12.58
2018-07-11T01:21:23.115Z,12.54
2018-07-11T01:23:50.972Z,12.53
2018-07-11T01:26:22.842Z,12.59
2018-07-11T01:28:51.345Z,12.61
2018-07-11T01:31:19.247Z,12.69
2018-07-11T01:33:47.226Z,12.73
2018-07-11T01:36:15.273Z,12.77
2018-07-11T01:38:43.208Z,12.83
2018-07-11T01:41:11.177Z,12.83
2018-07-11T01:43:39.184Z,12.78
2018-07-11T01:46:07.174Z,12.77
2018-07-11T01:48:35.124Z,12.72
2018-07-11T01:51:03.066Z,12.78
2018-07-11T01:53:31.049Z,12.80
2018-07-11T01:55:59.054Z,12.88
2018-07-11T01:58:26.994Z,12.91
2018-07-11T02:00:55.293Z,12.97
2018-07-11T02:03:23.250Z,12.99
2018-07-11T02:05:51.381Z,13.02
2018-07-11T02:08:19.326Z,13.06
2018-07-11T02:10:47.821Z,13.07
2018-07-11T02:13:15.813Z,13.06
2018-07-11T02:15:46.894Z,13.08
2018-07-11T02:18:18.192Z,13.11
2018-07-11T02:20:46.753Z,13.12
2018-07-11T02:23:15.260Z,13.13
2018-07-11T02:25:43.260Z,13.17
2018-07-11T02:28:11.827Z,13.15
2018-07-11T02:30:40.385Z,13.17
2018-07-11T02:33:08.362Z,13.19
2018-07-11T02:35:36.269Z,13.19
2018-07-11T02:38:04.256Z,13.27
2018-07-11T02:40:32.203Z,13.25
2018-07-11T02:43:00.146Z,13.27
2018-07-11T02:45:28.097Z,13.29
2018-07-11T02:47:56.168Z,13.33
2018-07-11T02:50:24.102Z,13.32
2018-07-11T02:52:52.029Z,13.31
2018-07-11T02:55:19.950Z,13.29
2018-07-11T02:57:47.889Z,13.28
2018-07-11T03:00:15.759Z,13.28
2018-07-11T03:02:43.657Z,13.25
2018-07-11T03:05:11.653Z,13.29
2018-07-11T03:07:39.575Z,13.26
2018-07-11T03:10:07.526Z,13.29
2018-07-11T03:12:35.442Z,13.34
2018-07-11T03:15:03.505Z,13.28
2018-07-11T03:17:31.473Z,13.26
2018-07-11T03:19:59.430Z,13.28
2018-07-11T03:22:27.335Z,13.25
2018-07-11T03:24:55.433Z,13.28
2018-07-11T03:27:23.425Z,13.28
2018-07-11T03:29:51.361Z,13.26
2018-07-11T03:32:19.269Z,13.31
2018-07-11T03:34:47.169Z,13.29
2018-07-11T03:37:15.141Z,13.30
2018-07-11T03:39:43.106Z,13.31
2018-07-11T03:42:11.100Z,13.32
2018-07-11T03:44:39.181Z,13.30
2018-07-11T03:47:07.063Z,13.32
2018-07-11T03:49:35.058Z,13.31
2018-07-11T03:52:02.976Z,13.33
2018-07-11T03:54:30.858Z,13.33
2018-07-11T03:56:58.693Z,13.31
2018-07-11T03:59:26.617Z,13.34
2018-07-11T04:01:54.521Z,13.36
2018-07-11T04:04:22.348Z,13.37
2018-07-11T04:06:50.234Z,13.42
2018-07-11T04:09:18.173Z,13.42
2018-07-11T04:11:46.101Z,13.41
2018-07-11T04:14:13.948Z,13.40
2018-07-11T04:16:41.861Z,13.35
2018-07-11T04:19:09.686Z,13.33
2018-07-11T04:21:37.636Z,13.32
2018-07-11T04:24:05.593Z,13.30
2018-07-11T04:26:33.554Z,13.27
2018-07-11T04:29:01.497Z,13.25
2018-07-11T04:31:29.544Z,13.32
2018-07-11T04:33:57.513Z,13.32
2018-07-11T04:36:25.458Z,13.31
2018-07-11T04:38:53.357Z,13.35
2018-07-11T04:41:21.437Z,13.41
2018-07-11T04:43:49.501Z,13.45
2018-07-11T04:46:17.509Z,13.44
2018-07-11T04:48:45.458Z,13.47
2018-07-11T04:51:13.461Z,13.36
2018-07-11T04:53:41.980Z,13.39
2018-07-11T04:56:09.965Z,13.43
2018-07-11T04:58:37.891Z,13.43
2018-07-11T05:01:05.901Z,13.44
2018-07-11T05:03:33.801Z,13.48
2018-07-11T05:06:01.741Z,13.53
2018-07-11T05:08:29.693Z,13.62
2018-07-11T05:10:57.552Z,13.74
2018-07-11T05:13:25.430Z,13.90
2018-07-11T05:15:53.321Z,14.09
2018-07-11T05:18:21.307Z,14.16
2018-07-11T05:20:49.257Z,14.26
2018-07-11T05:23:17.886Z,14.36
2018-07-11T05:25:46.453Z,14.44
2018-07-11T05:28:14.357Z,14.55
2018-07-11T05:30:42.345Z,14.61
2018-07-11T05:33:10.254Z,14.81
2018-07-11T05:35:38.113Z,14.94
2018-07-11T05:38:06.156Z,15.00
2018-07-11T05:40:34.021Z,15.15
2018-07-11T05:43:01.946Z,15.27
2018-07-11T05:45:29.884Z,15.39
2018-07-11T05:47:57.795Z,15.52
2018-07-11T05:50:25.693Z,15.52
2018-07-11T05:52:53.628Z,15.57
2018-07-11T05:55:21.570Z,15.61
2018-07-11T05:57:49.493Z,15.75
2018-07-11T06:00:17.342Z,15.79
2018-07-11T06:02:45.322Z,15.87
2018-07-11T06:05:13.081Z,16.20
2018-07-11T06:07:40.988Z,16.25
2018-07-11T06:10:09.330Z,16.37
2018-07-11T06:12:37.230Z,16.52
2018-07-11T06:15:05.205Z,16.66
2018-07-11T06:17:33.108Z,16.91
2018-07-11T06:20:01.011Z,17.17
2018-07-11T06:22:28.927Z,17.37
2018-07-11T06:24:56.871Z,17.52
2018-07-11T06:27:24.829Z,17.67
2018-07-11T06:29:52.746Z,17.95
2018-07-11T06:32:20.649Z,18.25
2018-07-11T06:34:48.579Z,18.39
2018-07-11T06:37:16.514Z,18.53
2018-07-11T06:39:44.468Z,18.71
2018-07-11T06:42:12.475Z,18.84
2018-07-11T06:44:40.361Z,19.02
2018-07-11T06:47:14.046Z,19.02
2018-07-11T06:49:44.308Z,18.87
2018-07-11T06:52:12.336Z,19.01
2018-07-11T06:54:40.217Z,19.11
2018-07-11T06:57:08.214Z,19.26
2018-07-11T06:59:36.048Z,19.44
2018-07-11T07:02:04.066Z,19.50
2018-07-11T07:04:32.037Z,19.45
2018-07-11T07:06:59.961Z,19.55
2018-07-11T07:09:27.908Z,19.83
2018-07-11T07:11:55.874Z,20.23
2018-07-11T07:14:23.809Z,20.29
2018-07-11T07:16:51.713Z,20.36
2018-07-11T07:19:19.579Z,20.36
2018-07-11T07:21:47.461Z,20.53
2018-07-11T07:24:15.629Z,20.77
2018-07-11T07:26:43.601Z,21.03
2018-07-11T07:29:11.565Z,21.21
2018-07-11T07:31:39.322Z,21.39
2018-07-11T07:34:07.258Z,21.50
2018-07-11T07:36:35.106Z,21.42
2018-07-11T07:39:04.152Z,21.61
2018-07-11T07:41:32.131Z,21.38
2018-07-11T07:44:00.085Z,21.68
2018-07-11T07:46:28.009Z,21.77
2018-07-11T07:48:55.993Z,21.58
2018-07-11T07:51:23.881Z,21.59
2018-07-11T07:53:51.790Z,21.50
2018-07-11T07:56:19.698Z,21.28
2018-07-11T07:58:47.711Z,21.38
2018-07-11T08:01:15.697Z,21.31
2018-07-11T08:03:43.609Z,21.35
2018-07-11T08:06:11.515Z,21.09
2018-07-11T08:08:39.431Z,21.07
2018-07-11T08:11:07.306Z,21.08
2018-07-11T08:13:35.260Z,21.04
2018-07-11T08:16:03.183Z,21.20
2018-07-11T08:18:31.083Z,21.36
2018-07-11T08:20:58.950Z,21.67
2018-07-11T08:23:45.232Z,21.82
2018-07-11T08:26:30.371Z,21.83
2018-07-11T08:30:04.644Z,21.95
2018-07-11T08:32:51.733Z,22.32
2018-07-11T08:35:38.388Z,22.41
2018-07-11T08:40:26.920Z,22.68
2018-07-11T08:47:22.052Z,23.22
2018-07-11T08:50:37.724Z,23.43
2018-07-11T08:54:20.065Z,23.49
2018-07-11T08:59:11.131Z,23.65
2018-07-11T09:03:58.477Z,23.80
2018-07-11T09:07:43.383Z,23.93
2018-07-11T09:12:04.273Z,23.94
2018-07-11T09:14:52.557Z,24.02
2018-07-11T09:19:49.062Z,23.78
2018-07-11T09:24:36.428Z,24.27
2018-07-11T09:27:04.257Z,24.42
2018-07-11T09:29:32.237Z,24.50
2018-07-11T09:32:00.213Z,24.39
2018-07-11T09:34:28.094Z,24.91
2018-07-11T09:36:55.989Z,25.00
2018-07-11T09:39:23.901Z,25.11
2018-07-11T09:41:51.935Z,24.92
2018-07-11T09:44:20.547Z,24.78
2018-07-11T09:46:48.556Z,24.68
2018-07-11T09:49:16.497Z,24.69
2018-07-11T09:51:44.388Z,24.44
2018-07-11T09:54:12.346Z,24.78
2018-07-11T09:56:40.611Z,24.81
2018-07-11T09:59:08.586Z,24.96
2018-07-11T10:01:36.648Z,25.06
2018-07-11T10:04:04.649Z,24.91
2018-07-11T10:06:32.549Z,25.00
2018-07-11T10:09:00.577Z,25.01
2018-07-11T10:11:28.515Z,24.96
2018-07-11T10:13:56.353Z,24.86
2018-07-11T10:16:24.408Z,24.65
2018-07-11T10:18:55.843Z,24.93
2018-07-11T10:21:23.773Z,25.08
2018-07-11T10:23:52.214Z,25.19
2018-07-11T10:26:20.110Z,25.12
2018-07-11T10:28:48.027Z,25.00
2018-07-11T10:31:15.961Z,24.94
2018-07-11T10:33:43.848Z,25.73
2018-07-11T10:36:11.705Z,26.10
2018-07-11T10:38:39.601Z,26.47
2018-07-11T10:41:07.564Z,26.77
2018-07-11T10:43:35.909Z,26.71
2018-07-11T10:46:03.957Z,26.61
2018-07-11T10:48:31.877Z,26.51
2018-07-11T10:50:59.837Z,26.51
2018-07-11T10:53:27.689Z,26.44
2018-07-11T10:55:55.884Z,26.20
2018-07-11T10:58:23.825Z,26.00
2018-07-11T11:01:05.025Z,25.89
2018-07-11T11:03:27.933Z,25.70
2018-07-11T11:05:55.853Z,25.58
2018-07-11T11:08:24.287Z,25.53
2018-07-11T11:10:52.531Z,25.67
2018-07-11T11:13:21.299Z,25.79
2018-07-11T11:15:49.973Z,26.06
2018-07-11T11:18:18.062Z,26.26
2018-07-11T11:20:45.949Z,26.42
2018-07-11T11:23:13.872Z,26.64
2018-07-11T11:25:41.842Z,26.88
2018-07-11T11:28:09.675Z,27.16
2018-07-11T11:30:37.540Z,27.56
2018-07-11T11:33:05.434Z,28.43
2018-07-11T11:35:33.440Z,29.52
2018-07-11T11:38:01.284Z,30.43
2018-07-11T11:40:29.233Z,31.16
2018-07-11T11:42:57.180Z,31.00
2018-07-11T11:45:25.096Z,30.90
2018-07-11T11:47:56.170Z,30.74
2018-07-11T11:50:24.529Z,30.67
2018-07-11T11:52:52.717Z,30.16
2018-07-11T11:55:20.760Z,29.79
2018-07-11T11:57:49.204Z,29.26
2018-07-11T12:00:17.194Z,29.05
2018-07-11T12:02:45.185Z,28.75
2018-07-11T12:05:13.141Z,28.13
2018-07-11T12:07:41.016Z,27.60
2018-07-11T12:10:09.040Z,26.44
2018-07-11T12:12:36.937Z,25.82
2018-07-11T12:15:05.454Z,25.49
2018-07-11T12:17:33.648Z,25.22
2018-07-11T12:20:01.525Z,24.52
2018-07-11T12:22:29.483Z,24.49
2018-07-11T12:24:57.440Z,24.49
2018-07-11T12:27:25.449Z,24.23
2018-07-11T12:29:53.275Z,23.95
2018-07-11T12:32:21.627Z,23.97
2018-07-11T12:34:49.578Z,23.68
2018-07-11T12:37:18.435Z,23.64
2018-07-11T12:39:46.870Z,23.91
2018-07-11T12:42:14.890Z,23.77
2018-07-11T12:44:42.869Z,24.00
2018-07-11T12:47:16.337Z,24.24
2018-07-11T12:49:44.249Z,24.57
2018-07-11T12:52:12.276Z,24.84
2018-07-11T12:54:40.291Z,24.78
2018-07-11T12:57:08.731Z,24.91
2018-07-11T12:59:37.077Z,25.14
2018-07-11T13:02:05.261Z,24.97
2018-07-11T13:04:33.200Z,25.02
2018-07-11T13:07:01.889Z,25.32
2018-07-11T13:09:30.112Z,25.55
2018-07-11T13:11:58.093Z,25.82
2018-07-11T13:14:25.947Z,26.04
2018-07-11T13:16:53.849Z,26.04
2018-07-11T13:19:21.927Z,26.32
2018-07-11T13:21:49.808Z,26.30
2018-07-11T13:24:17.729Z,26.15
2018-07-11T13:26:45.584Z,26.16
2018-07-11T13:29:13.453Z,26.36
2018-07-11T13:31:41.408Z,26.67
2018-07-11T13:34:09.360Z,26.88
2018-07-11T13:36:37.321Z,26.87
2018-07-11T13:39:18.877Z,27.25
2018-07-11T13:41:47.681Z,27.41
2018-07-11T13:44:15.785Z,27.66
2018-07-11T13:46:43.866Z,27.66
2018-07-11T13:49:12.293Z,27.65
2018-07-11T13:51:40.212Z,27.94
2018-07-11T13:54:08.340Z,28.06
2018-07-11T13:56:36.370Z,28.08
2018-07-11T13:59:04.313Z,28.24
2018-07-11T14:01:32.640Z,28.29
2018-07-11T14:04:01.182Z,28.44
2018-07-11T14:06:29.056Z,28.55
2018-07-11T14:08:57.044Z,28.72
2018-07-11T14:11:25.004Z,28.57
2018-07-11T14:13:52.958Z,28.56
2018-07-11T14:16:21.457Z,28.29
2018-07-11T14:18:49.580Z,28.13
2018-07-11T14:21:17.484Z,27.99
2018-07-11T14:23:45.382Z,27.87
2018-07-11T14:26:14.828Z,27.68
2018-07-11T14:28:47.286Z,27.33
2018-07-11T14:31:21.941Z,26.99
2018-07-11T14:33:49.925Z,26.72
2018-07-11T14:36:18.128Z,26.44
2018-07-11T14:38:46.021Z,26.07
2018-07-11T14:41:14.211Z,25.67
2018-07-11T14:43:45.819Z,25.47
2018-07-11T14:46:14.661Z,25.04
2018-07-11T14:48:42.796Z,24.77
2018-07-11T14:51:10.737Z,24.70
2018-07-11T14:53:38.740Z,24.47
2018-07-11T14:56:06.626Z,24.20
2018-07-11T14:58:34.665Z,24.12
2018-07-11T15:01:02.605Z,24.03
2018-07-11T15:03:31.169Z,23.96
2018-07-11T15:05:59.485Z,23.80
2018-07-11T15:08:28.069Z,23.77
2018-07-11T15:10:55.929Z,23.65
2018-07-11T15:13:24.399Z,23.59
2018-07-11T15:15:53.072Z,23.56
2018-07-11T15:18:21.012Z,23.28
2018-07-11T15:20:50.178Z,23.20
2018-07-11T15:23:18.212Z,22.95
2018-07-11T15:25:46.412Z,22.88
2018-07-11T15:28:14.512Z,22.52
2018-07-11T15:30:43.333Z,22.45
2018-07-11T15:33:11.303Z,22.40
2018-07-11T15:35:39.474Z,22.31
2018-07-11T15:38:08.077Z,22.34
2018-07-11T15:40:36.207Z,22.29
2018-07-11T15:43:04.381Z,22.28
2018-07-11T15:45:32.360Z,22.15
2018-07-11T15:48:00.710Z,22.15
2018-07-11T15:50:29.201Z,22.17
2018-07-11T15:52:58.231Z,22.32
2018-07-11T15:55:27.333Z,22.33
2018-07-11T15:58:01.378Z,22.06
2018-07-11T16:00:38.704Z,22.15
2018-07-11T16:03:06.730Z,21.85
2018-07-11T16:05:38.790Z,21.75
2018-07-11T16:08:06.815Z,21.66
2018-07-11T16:10:47.706Z,21.42
2018-07-11T16:13:15.555Z,21.10
2018-07-11T16:15:44.229Z,20.86
2018-07-11T16:18:12.180Z,20.87
2018-07-11T16:20:40.105Z,20.67
2018-07-11T16:23:08.793Z,20.56
2018-07-11T16:25:37.713Z,20.45
2018-07-11T16:28:06.101Z,20.33
2018-07-11T16:30:34.350Z,20.24
2018-07-11T16:33:02.717Z,20.15
2018-07-11T16:35:30.794Z,20.13
2018-07-11T16:37:58.709Z,20.13
2018-07-11T16:40:27.865Z,20.02
2018-07-11T16:42:55.886Z,19.94
2018-07-11T16:45:24.013Z,19.96
2018-07-11T16:47:52.009Z,19.95
2018-07-11T16:50:20.358Z,19.83
2018-07-11T16:52:49.160Z,19.86
2018-07-11T16:55:17.232Z,19.92
2018-07-11T16:57:47.344Z,19.80
2018-07-11T17:00:17.564Z,19.75
2018-07-11T17:02:49.873Z,19.65
2018-07-11T17:05:20.592Z,19.52
2018-07-11T17:07:51.804Z,19.36
2018-07-11T17:10:21.457Z,19.24
2018-07-11T17:13:06.929Z,19.16
2018-07-11T17:15:35.989Z,19.03
2018-07-11T17:18:05.034Z,19.00
2018-07-11T17:20:33.254Z,19.05
2018-07-11T17:23:05.057Z,19.04
2018-07-11T17:25:39.164Z,18.99
2018-07-11T17:28:07.101Z,18.86
2018-07-11T17:30:39.519Z,18.71
2018-07-11T17:33:09.738Z,18.57
2018-07-11T17:35:46.813Z,18.61
2018-07-11T17:38:14.824Z,18.38
2018-07-11T17:40:45.120Z,18.47
2018-07-11T17:43:16.280Z,18.51
2018-07-11T17:45:44.265Z,18.49
2018-07-11T17:48:25.937Z,18.46
2018-07-11T17:51:00.973Z,18.42
2018-07-11T17:53:38.328Z,18.32
2018-07-11T17:56:10.941Z,18.31
2018-07-11T17:58:56.908Z,18.15
2018-07-11T18:01:39.151Z,18.13
2018-07-11T18:06:26.656Z,18.05
2018-07-11T18:09:13.500Z,17.97
2018-07-11T18:11:54.369Z,17.99
2018-07-11T18:15:37.213Z,18.03
2018-07-11T18:18:18.829Z,17.82
2018-07-11T18:21:14.334Z,17.71
2018-07-11T18:26:00.387Z,17.77
2018-07-11T18:28:45.424Z,17.69
2018-07-11T18:31:28.841Z,17.63
2018-07-11T18:34:20.604Z,17.63
2018-07-11T18:37:23.749Z,17.59
2018-07-11T18:40:01.145Z,17.48
2018-07-11T18:43:50.292Z,17.40
2018-07-11T18:46:29.961Z,17.27
2018-07-11T18:49:12.684Z,17.19
2018-07-11T18:51:55.551Z,17.15
2018-07-11T18:55:44.074Z,17.20
2018-07-11T18:58:29.437Z,17.07
2018-07-11T19:01:16.577Z,17.12
2018-07-11T19:05:58.924Z,17.02
2018-07-11T19:08:42.803Z,16.81
2018-07-11T19:11:19.850Z,16.79
2018-07-11T19:13:51.409Z,16.79
2018-07-11T19:17:42.429Z,16.67
2018-07-11T19:21:23.020Z,16.55
2018-07-11T19:24:04.806Z,16.37
2018-07-11T19:27:10.838Z,16.37
2018-07-11T19:30:13.309Z,16.38
2018-07-11T19:33:00.149Z,16.22
2018-07-11T19:37:54.669Z,16.21
2018-07-11T19:40:44.644Z,16.08
2018-07-11T19:43:47.929Z,16.15
2018-07-11T19:47:32.758Z,16.09
2018-07-11T19:50:17.100Z,16.09
2018-07-11T19:57:08.743Z,16.03
2018-07-11T19:59:36.773Z,15.97
2018-07-11T20:02:05.205Z,15.99
2018-07-11T20:04:33.269Z,16.00
2018-07-11T20:07:01.369Z,15.90
2018-07-11T20:09:29.372Z,15.78
2018-07-11T20:11:57.625Z,15.87
2018-07-11T20:14:25.670Z,15.85
2018-07-11T20:16:53.780Z,15.88
2018-07-11T20:19:21.753Z,15.86
2018-07-11T20:21:49.873Z,15.82
2018-07-11T20:24:17.784Z,15.81
2018-07-11T20:26:45.717Z,15.72
2018-07-11T20:29:13.635Z,15.78
2018-07-11T20:31:41.613Z,15.79
2018-07-11T20:34:10.531Z,15.77
2018-07-11T20:36:38.394Z,15.77
2018-07-11T20:39:06.287Z,15.76
2018-07-11T20:41:34.249Z,15.71
2018-07-11T20:44:02.335Z,15.73
2018-07-11T20:46:31.382Z,15.69
2018-07-11T20:49:02.741Z,15.61
2018-07-11T20:51:30.645Z,15.61
2018-07-11T20:53:58.621Z,15.65
2018-07-11T20:56:26.583Z,15.59
2018-07-11T20:59:13.253Z,15.63
2018-07-11T21:02:58.117Z,15.61
2018-07-11T21:05:42.390Z,15.56
2018-07-11T21:08:30.344Z,15.60
2018-07-11T21:14:16.751Z,15.62
2018-07-11T21:19:08.717Z,15.60
2018-07-11T21:21:37.517Z,15.54
2018-07-11T21:24:06.860Z,15.55
2018-07-11T21:26:36.137Z,15.51
2018-07-11T21:29:04.165Z,15.55
2018-07-11T21:31:32.142Z,15.56
2018-07-11T21:34:00.031Z,15.57
2018-07-11T21:36:28.053Z,15.54
2018-07-11T21:39:00.994Z,15.47
2018-07-11T21:41:29.401Z,15.46
2018-07-11T21:43:57.374Z,15.50
2018-07-11T21:46:29.726Z,15.50
2018-07-11T21:49:01.648Z,15.42
2018-07-11T21:51:29.984Z,15.48
2018-07-11T21:53:57.905Z,15.51
2018-07-11T21:56:26.035Z,15.47
2018-07-11T21:58:53.855Z,15.46
2018-07-11T22:01:21.782Z,15.47
2018-07-11T22:03:49.708Z,15.45
2018-07-11T22:06:17.693Z,15.43
2018-07-11T22:08:52.669Z,15.43
2018-07-11T22:11:21.572Z,15.45
2018-07-11T22:13:51.381Z,15.43
2018-07-11T22:16:19.238Z,15.45
2018-07-11T22:18:47.152Z,15.39
2018-07-11T22:21:14.541Z,15.41
2018-07-11T22:23:41.146Z,15.39
2018-07-11T22:26:07.996Z,15.42
2018-07-11T22:28:34.632Z,15.38
2018-07-11T22:31:01.021Z,15.39
2018-07-11T22:33:27.417Z,15.41
2018-07-11T22:35:53.812Z,15.40
2018-07-11T22:38:20.678Z,15.37
2018-07-11T22:40:47.050Z,15.35
2018-07-11T22:43:13.453Z,15.36
2018-07-11T22:45:40.015Z,15.34
2018-07-11T22:48:06.405Z,15.29
2018-07-11T22:50:32.805Z,15.33
2018-07-11T22:52:59.220Z,15.33
2018-07-11T22:55:25.617Z,15.32
2018-07-11T22:57:52.315Z,15.26
2018-07-11T23:00:18.721Z,15.29
2018-07-11T23:02:45.121Z,15.28
2018-07-11T23:05:11.505Z,15.30
2018-07-11T23:07:37.932Z,15.32
2018-07-11T23:10:05.198Z,15.32
2018-07-11T23:12:31.693Z,15.31
2018-07-11T23:14:58.097Z,15.30
2018-07-11T23:17:24.536Z,15.30
2018-07-11T23:19:52.345Z,15.33
2018-07-11T23:22:18.748Z,15.32
2018-07-11T23:24:45.137Z,15.30
2018-07-11T23:27:16.896Z,15.31
2018-07-11T23:29:43.586Z,15.34
2018-07-11T23:32:09.994Z,15.32
2018-07-11T23:34:37.002Z,15.28
2018-07-11T23:37:03.720Z,15.23
2018-07-11T23:39:30.126Z,15.21
2018-07-11T23:41:57.258Z,15.18
2018-07-11T23:44:23.674Z,15.22
2018-07-11T23:46:50.068Z,15.23
2018-07-11T23:49:16.948Z,15.20
2018-07-11T23:51:43.381Z,15.17
2018-07-11T23:54:09.785Z,15.10
2018-07-11T23:56:36.188Z,15.09
2018-07-11T23:59:02.568Z,15.03
